sensor_id;sensor_type;location;lat;lon;timestamp;temperature;humidity
68842;SHT35;55849;48.482;2.332;2023-04-03T00:02:59;11.36;68.18
68842;SHT35;55849;48.482;2.332;2023-04-03T00:06:02;11.33;68.16
68842;SHT35;55849;48.482;2.332;2023-04-03T00:09:05;11.33;68.59
68842;SHT35;55849;48.482;2.332;2023-04-03T00:12:07;11.31;67.82
68842;SHT35;55849;48.482;2.332;2023-04-03T04:49:59;10.95;68.36
68842;SHT35;55849;48.482;2.332;2023-04-03T04:53:01;10.91;68.45
68842;SHT35;55849;48.482;2.332;2023-04-03T04:56:03;10.93;68.82
68842;SHT35;55849;48.482;2.332;2023-04-03T04:59:05;10.90;69.07
68842;SHT35;55849;48.482;2.332;2023-04-03T05:02:06;10.93;68.78
68842;SHT35;55849;48.482;2.332;2023-04-03T05:05:09;10.93;68.26
68842;SHT35;55849;48.482;2.332;2023-04-03T05:08:11;10.91;68.29
68842;SHT35;55849;48.482;2.332;2023-04-03T05:11:12;10.88;68.52
68842;SHT35;55849;48.482;2.332;2023-04-03T05:14:14;10.87;68.40
68842;SHT35;55849;48.482;2.332;2023-04-03T05:17:16;10.85;67.77
68842;SHT35;55849;48.482;2.332;2023-04-03T05:20:19;10.85;68.05
68842;SHT35;55849;48.482;2.332;2023-04-03T05:23:20;10.84;67.57
68842;SHT35;55849;48.482;2.332;2023-04-03T05:26:22;10.84;67.58
68842;SHT35;55849;48.482;2.332;2023-04-03T05:29:23;10.83;67.54
68842;SHT35;55849;48.482;2.332;2023-04-03T05:32:25;10.83;67.55
68842;SHT35;55849;48.482;2.332;2023-04-03T05:35:29;10.80;67.39
68842;SHT35;55849;48.482;2.332;2023-04-03T05:38:30;10.81;67.61
68842;SHT35;55849;48.482;2.332;2023-04-03T05:41:32;10.79;67.40
68842;SHT35;55849;48.482;2.332;2023-04-03T05:44:34;10.77;67.13
68842;SHT35;55849;48.482;2.332;2023-04-03T05:47:35;10.79;66.98
68842;SHT35;55849;48.482;2.332;2023-04-03T05:50:38;10.77;66.88
68842;SHT35;55849;48.482;2.332;2023-04-03T05:53:43;10.77;67.33
68842;SHT35;55849;48.482;2.332;2023-04-03T05:56:45;10.79;66.74
68842;SHT35;55849;48.482;2.332;2023-04-03T05:59:47;10.80;67.66
68842;SHT35;55849;48.482;2.332;2023-04-03T06:02:49;10.79;66.71
68842;SHT35;55849;48.482;2.332;2023-04-03T06:05:52;10.77;66.99
68842;SHT35;55849;48.482;2.332;2023-04-03T06:08:54;10.74;66.80
68842;SHT35;55849;48.482;2.332;2023-04-03T06:11:56;10.76;66.79
68842;SHT35;55849;48.482;2.332;2023-04-03T06:14:58;10.76;66.69
68842;SHT35;55849;48.482;2.332;2023-04-03T06:18:01;10.76;66.35
68842;SHT35;55849;48.482;2.332;2023-04-03T06:21:04;10.74;66.82
68842;SHT35;55849;48.482;2.332;2023-04-03T06:24:14;10.76;66.50
68842;SHT35;55849;48.482;2.332;2023-04-03T06:27:15;10.74;66.15
68842;SHT35;55849;48.482;2.332;2023-04-03T06:30:17;10.77;66.56
68842;SHT35;55849;48.482;2.332;2023-04-03T06:33:19;10.76;66.35
68842;SHT35;55849;48.482;2.332;2023-04-03T06:36:22;10.77;66.44
68842;SHT35;55849;48.482;2.332;2023-04-03T06:39:24;10.76;65.92
68842;SHT35;55849;48.482;2.332;2023-04-03T06:42:26;10.77;66.49
68842;SHT35;55849;48.482;2.332;2023-04-03T06:45:27;10.79;66.27
68842;SHT35;55849;48.482;2.332;2023-04-03T06:48:29;10.80;66.63
68842;SHT35;55849;48.482;2.332;2023-04-03T06:51:33;10.81;66.45
68842;SHT35;55849;48.482;2.332;2023-04-03T06:54:35;10.79;66.46
68842;SHT35;55849;48.482;2.332;2023-04-03T06:57:37;10.83;66.50
68842;SHT35;55849;48.482;2.332;2023-04-03T07:00:39;10.81;65.96
68842;SHT35;55849;48.482;2.332;2023-04-03T07:03:41;10.85;66.27
68842;SHT35;55849;48.482;2.332;2023-04-03T07:06:44;10.87;66.38
68842;SHT35;55849;48.482;2.332;2023-04-03T07:09:45;10.90;66.44
68842;SHT35;55849;48.482;2.332;2023-04-03T07:12:48;10.90;66.10
68842;SHT35;55849;48.482;2.332;2023-04-03T07:15:50;10.94;66.09
68842;SHT35;55849;48.482;2.332;2023-04-03T07:18:51;10.94;65.96
68842;SHT35;55849;48.482;2.332;2023-04-03T07:21:54;10.98;65.80
68842;SHT35;55849;48.482;2.332;2023-04-03T07:24:56;10.97;65.70
68842;SHT35;55849;48.482;2.332;2023-04-03T07:27:59;10.95;65.80
68842;SHT35;55849;48.482;2.332;2023-04-03T07:31:03;10.97;65.67
68842;SHT35;55849;48.482;2.332;2023-04-03T07:34:06;11.04;65.93
68842;SHT35;55849;48.482;2.332;2023-04-03T07:37:09;11.03;65.17
68842;SHT35;55849;48.482;2.332;2023-04-03T07:40:11;11.01;64.91
68842;SHT35;55849;48.482;2.332;2023-04-03T07:43:13;11.01;65.13
68842;SHT35;55849;48.482;2.332;2023-04-03T07:46:14;11.00;65.62
68842;SHT35;55849;48.482;2.332;2023-04-03T07:49:17;11.01;64.56
68842;SHT35;55849;48.482;2.332;2023-04-03T07:52:20;11.01;64.94
68842;SHT35;55849;48.482;2.332;2023-04-03T07:55:22;11.05;65.38
68842;SHT35;55849;48.482;2.332;2023-04-03T07:58:24;11.07;65.07
68842;SHT35;55849;48.482;2.332;2023-04-03T08:01:25;11.08;65.37
68842;SHT35;55849;48.482;2.332;2023-04-03T08:04:27;11.11;65.70
68842;SHT35;55849;48.482;2.332;2023-04-03T08:07:30;11.15;65.40
68842;SHT35;55849;48.482;2.332;2023-04-03T08:10:32;11.19;65.68
68842;SHT35;55849;48.482;2.332;2023-04-03T08:13:34;11.22;65.56
68842;SHT35;55849;48.482;2.332;2023-04-03T08:16:36;11.28;65.36
68842;SHT35;55849;48.482;2.332;2023-04-03T08:19:38;11.31;65.50
68842;SHT35;55849;48.482;2.332;2023-04-03T08:22:41;11.36;65.42
68842;SHT35;55849;48.482;2.332;2023-04-03T08:25:44;11.39;65.42
68842;SHT35;55849;48.482;2.332;2023-04-03T08:28:46;11.43;64.99
68842;SHT35;55849;48.482;2.332;2023-04-03T08:31:47;11.44;64.93
68842;SHT35;55849;48.482;2.332;2023-04-03T08:34:50;11.50;65.22
68842;SHT35;55849;48.482;2.332;2023-04-03T08:37:53;11.53;64.47
68842;SHT35;55849;48.482;2.332;2023-04-03T08:41:04;11.57;64.94
68842;SHT35;55849;48.482;2.332;2023-04-03T08:44:15;11.60;65.09
68842;SHT35;55849;48.482;2.332;2023-04-03T08:47:23;11.63;64.88
68842;SHT35;55849;48.482;2.332;2023-04-03T08:50:29;11.69;64.77
68842;SHT35;55849;48.482;2.332;2023-04-03T08:53:35;11.75;64.98
68842;SHT35;55849;48.482;2.332;2023-04-03T08:56:40;11.74;65.16
68842;SHT35;55849;48.482;2.332;2023-04-03T08:59:42;11.80;65.36
68842;SHT35;55849;48.482;2.332;2023-04-03T09:02:46;11.85;64.49
68842;SHT35;55849;48.482;2.332;2023-04-03T09:05:53;11.90;64.55
68842;SHT35;55849;48.482;2.332;2023-04-03T09:09:06;11.98;65.20
68842;SHT35;55849;48.482;2.332;2023-04-03T09:12:18;12.02;64.02
68842;SHT35;55849;48.482;2.332;2023-04-03T09:15:22;12.05;63.11
68842;SHT35;55849;48.482;2.332;2023-04-03T09:18:28;12.08;62.60
68842;SHT35;55849;48.482;2.332;2023-04-03T09:21:36;12.06;61.94
68842;SHT35;55849;48.482;2.332;2023-04-03T09:24:41;12.08;62.28
68842;SHT35;55849;48.482;2.332;2023-04-03T09:27:43;12.09;62.82
68842;SHT35;55849;48.482;2.332;2023-04-03T09:30:45;12.12;62.62
68842;SHT35;55849;48.482;2.332;2023-04-03T09:33:49;12.12;61.82
68842;SHT35;55849;48.482;2.332;2023-04-03T09:36:53;12.15;62.73
68842;SHT35;55849;48.482;2.332;2023-04-03T09:39:57;12.14;61.19
68842;SHT35;55849;48.482;2.332;2023-04-03T09:43:00;12.16;61.89
68842;SHT35;55849;48.482;2.332;2023-04-03T09:46:25;12.18;61.41
68842;SHT35;55849;48.482;2.332;2023-04-03T09:49:29;12.21;61.50
68842;SHT35;55849;48.482;2.332;2023-04-03T09:52:31;12.16;61.61
68842;SHT35;55849;48.482;2.332;2023-04-03T09:55:42;12.22;61.75
68842;SHT35;55849;48.482;2.332;2023-04-03T09:58:46;12.28;61.68
68842;SHT35;55849;48.482;2.332;2023-04-03T10:01:58;12.30;60.71
68842;SHT35;55849;48.482;2.332;2023-04-03T10:05:00;12.33;60.90
68842;SHT35;55849;48.482;2.332;2023-04-03T10:08:20;12.37;60.71
68842;SHT35;55849;48.482;2.332;2023-04-03T10:11:25;12.39;60.39
68842;SHT35;55849;48.482;2.332;2023-04-03T10:14:27;12.43;59.86
68842;SHT35;55849;48.482;2.332;2023-04-03T10:17:49;12.51;61.03
68842;SHT35;55849;48.482;2.332;2023-04-03T10:20:53;12.54;59.42
68842;SHT35;55849;48.482;2.332;2023-04-03T10:24:05;12.54;59.92
68842;SHT35;55849;48.482;2.332;2023-04-03T10:27:13;12.60;60.24
68842;SHT35;55849;48.482;2.332;2023-04-03T10:30:29;12.61;60.41
68842;SHT35;55849;48.482;2.332;2023-04-03T10:33:42;12.64;60.22
68842;SHT35;55849;48.482;2.332;2023-04-03T10:36:55;12.71;60.38
68842;SHT35;55849;48.482;2.332;2023-04-03T10:40:02;12.75;60.27
68842;SHT35;55849;48.482;2.332;2023-04-03T10:43:09;12.80;60.49
68842;SHT35;55849;48.482;2.332;2023-04-03T10:46:16;12.80;59.48
68842;SHT35;55849;48.482;2.332;2023-04-03T10:49:36;12.81;59.65
68842;SHT35;55849;48.482;2.332;2023-04-03T10:52:46;12.81;60.01
68842;SHT35;55849;48.482;2.332;2023-04-03T10:55:53;12.83;59.43
68842;SHT35;55849;48.482;2.332;2023-04-03T10:59:05;12.85;58.85
68842;SHT35;55849;48.482;2.332;2023-04-03T11:02:16;12.87;60.07
68842;SHT35;55849;48.482;2.332;2023-04-03T11:05:28;12.91;59.42
68842;SHT35;55849;48.482;2.332;2023-04-03T11:08:34;12.96;59.42
68842;SHT35;55849;48.482;2.332;2023-04-03T11:11:39;13.01;58.96
68842;SHT35;55849;48.482;2.332;2023-04-03T11:14:44;13.03;59.14
68842;SHT35;55849;48.482;2.332;2023-04-03T18:55:02;16.24;45.23
68842;SHT35;55849;48.482;2.332;2023-04-03T18:58:04;16.16;45.12
68842;SHT35;55849;48.482;2.332;2023-04-03T19:01:05;16.03;45.97
68842;SHT35;55849;48.482;2.332;2023-04-03T19:04:07;15.90;45.96
68842;SHT35;55849;48.482;2.332;2023-04-03T19:07:09;15.82;46.02
68842;SHT35;55849;48.482;2.332;2023-04-03T19:10:14;15.68;46.29
68842;SHT35;55849;48.482;2.332;2023-04-03T19:13:17;15.58;46.69
68842;SHT35;55849;48.482;2.332;2023-04-03T19:16:19;15.47;46.62
68842;SHT35;55849;48.482;2.332;2023-04-03T19:19:20;15.37;46.87
68842;SHT35;55849;48.482;2.332;2023-04-03T19:22:22;15.27;47.22
68842;SHT35;55849;48.482;2.332;2023-04-03T19:25:25;15.17;46.47
68842;SHT35;55849;48.482;2.332;2023-04-03T19:28:27;15.09;47.12
68842;SHT35;55849;48.482;2.332;2023-04-03T19:31:29;15.02;47.66
68842;SHT35;55849;48.482;2.332;2023-04-03T19:34:32;14.93;47.00
68842;SHT35;55849;48.482;2.332;2023-04-03T19:37:34;14.89;46.64
68842;SHT35;55849;48.482;2.332;2023-04-03T19:40:37;14.83;46.78
68842;SHT35;55849;48.482;2.332;2023-04-03T19:43:43;14.76;46.97
68842;SHT35;55849;48.482;2.332;2023-04-03T19:46:45;14.69;47.22
68842;SHT35;55849;48.482;2.332;2023-04-03T19:49:48;14.60;47.39
68842;SHT35;55849;48.482;2.332;2023-04-03T19:52:50;14.55;47.48
68842;SHT35;55849;48.482;2.332;2023-04-03T19:55:54;14.47;47.58
68842;SHT35;55849;48.482;2.332;2023-04-03T19:58:56;14.40;47.56
68842;SHT35;55849;48.482;2.332;2023-04-03T20:01:58;14.33;48.38
68842;SHT35;55849;48.482;2.332;2023-04-03T20:04:59;14.23;47.92
68842;SHT35;55849;48.482;2.332;2023-04-03T20:08:01;14.19;48.30
68842;SHT35;55849;48.482;2.332;2023-04-03T20:11:04;14.13;48.53
68842;SHT35;55849;48.482;2.332;2023-04-03T20:14:06;14.02;48.71
68842;SHT35;55849;48.482;2.332;2023-04-03T20:17:08;13.95;48.85
68842;SHT35;55849;48.482;2.332;2023-04-03T20:20:10;13.92;49.23
68842;SHT35;55849;48.482;2.332;2023-04-03T20:23:12;13.79;49.12
68842;SHT35;55849;48.482;2.332;2023-04-03T20:26:20;13.67;49.04
68842;SHT35;55849;48.482;2.332;2023-04-03T20:29:23;13.62;49.13
68842;SHT35;55849;48.482;2.332;2023-04-03T20:32:24;13.53;48.98
68842;SHT35;55849;48.482;2.332;2023-04-03T20:35:26;13.47;49.27
68842;SHT35;55849;48.482;2.332;2023-04-03T20:38:28;13.42;49.87
68842;SHT35;55849;48.482;2.332;2023-04-03T20:41:31;13.35;50.06
68842;SHT35;55849;48.482;2.332;2023-04-03T20:44:34;13.29;50.10
68842;SHT35;55849;48.482;2.332;2023-04-03T20:47:36;13.20;50.08
68842;SHT35;55849;48.482;2.332;2023-04-03T20:50:38;13.13;50.45
68842;SHT35;55849;48.482;2.332;2023-04-03T20:53:40;13.08;50.17
68842;SHT35;55849;48.482;2.332;2023-04-03T20:56:43;13.03;50.07
68842;SHT35;55849;48.482;2.332;2023-04-03T20:59:46;12.96;50.05
68842;SHT35;55849;48.482;2.332;2023-04-03T21:02:48;12.91;49.85
68842;SHT35;55849;48.482;2.332;2023-04-03T21:19:21;12.54;51.12
68842;SHT35;55849;48.482;2.332;2023-04-03T21:22:22;12.47;51.17
68842;SHT35;55849;48.482;2.332;2023-04-03T21:25:24;12.42;51.40
68842;SHT35;55849;48.482;2.332;2023-04-03T21:28:27;12.36;51.23
68842;SHT35;55849;48.482;2.332;2023-04-03T21:31:49;12.30;51.40
68842;SHT35;55849;48.482;2.332;2023-04-03T21:34:52;12.26;51.42
68842;SHT35;55849;48.482;2.332;2023-04-03T21:37:54;12.19;51.54
68842;SHT35;55849;48.482;2.332;2023-04-03T21:40:57;12.14;51.49
68842;SHT35;55849;48.482;2.332;2023-04-03T21:43:59;12.08;51.61
68842;SHT35;55849;48.482;2.332;2023-04-03T21:47:01;12.05;51.62
68842;SHT35;55849;48.482;2.332;2023-04-03T21:50:05;11.95;51.68
68842;SHT35;55849;48.482;2.332;2023-04-03T21:53:07;11.92;51.58
68842;SHT35;55849;48.482;2.332;2023-04-03T21:56:09;11.85;51.75
68842;SHT35;55849;48.482;2.332;2023-04-03T21:59:11;11.77;51.80
68842;SHT35;55849;48.482;2.332;2023-04-03T22:02:13;11.71;51.65
68842;SHT35;55849;48.482;2.332;2023-04-03T22:05:16;11.69;51.91
68842;SHT35;55849;48.482;2.332;2023-04-03T22:08:18;11.64;51.95
68842;SHT35;55849;48.482;2.332;2023-04-03T22:11:19;11.59;52.04
68842;SHT35;55849;48.482;2.332;2023-04-03T22:14:23;11.52;51.89
68842;SHT35;55849;48.482;2.332;2023-04-03T22:17:28;11.46;51.84
68842;SHT35;55849;48.482;2.332;2023-04-03T22:20:31;11.40;52.04
68842;SHT35;55849;48.482;2.332;2023-04-03T22:23:33;11.33;52.31
68842;SHT35;55849;48.482;2.332;2023-04-03T22:26:34;11.29;52.45
68842;SHT35;55849;48.482;2.332;2023-04-03T22:29:38;11.25;52.34
68842;SHT35;55849;48.482;2.332;2023-04-03T22:32:40;11.19;52.29
68842;SHT35;55849;48.482;2.332;2023-04-03T22:35:45;11.15;52.41
68842;SHT35;55849;48.482;2.332;2023-04-03T22:38:47;11.10;52.56
68842;SHT35;55849;48.482;2.332;2023-04-03T22:41:48;11.07;52.64
68842;SHT35;55849;48.482;2.332;2023-04-03T22:44:51;11.04;52.83
68842;SHT35;55849;48.482;2.332;2023-04-03T22:47:53;11.00;52.64
68842;SHT35;55849;48.482;2.332;2023-04-03T22:50:59;10.97;52.70
68842;SHT35;55849;48.482;2.332;2023-04-03T22:54:01;10.90;52.96
68842;SHT35;55849;48.482;2.332;2023-04-03T22:57:02;10.85;52.66
68842;SHT35;55849;48.482;2.332;2023-04-03T23:00:05;10.81;52.86
68842;SHT35;55849;48.482;2.332;2023-04-03T23:03:07;10.79;52.78
68842;SHT35;55849;48.482;2.332;2023-04-03T23:06:13;10.70;52.86
68842;SHT35;55849;48.482;2.332;2023-04-03T23:09:15;10.70;53.04
68842;SHT35;55849;48.482;2.332;2023-04-03T23:12:17;10.64;52.99
68842;SHT35;55849;48.482;2.332;2023-04-03T23:15:18;10.60;52.88
68842;SHT35;55849;48.482;2.332;2023-04-03T23:18:20;10.53;53.05
68842;SHT35;55849;48.482;2.332;2023-04-03T23:21:23;10.53;53.10
68842;SHT35;55849;48.482;2.332;2023-04-03T23:24:25;10.50;53.25
68842;SHT35;55849;48.482;2.332;2023-04-03T23:27:26;10.46;53.35
68842;SHT35;55849;48.482;2.332;2023-04-03T23:30:28;10.42;53.28
68842;SHT35;55849;48.482;2.332;2023-04-03T23:33:30;10.42;53.22
68842;SHT35;55849;48.482;2.332;2023-04-03T23:36:33;10.39;53.28
68842;SHT35;55849;48.482;2.332;2023-04-03T23:39:35;10.32;53.41
68842;SHT35;55849;48.482;2.332;2023-04-03T23:42:36;10.31;53.47
68842;SHT35;55849;48.482;2.332;2023-04-03T23:45:38;10.25;53.21
68842;SHT35;55849;48.482;2.332;2023-04-03T23:48:40;10.21;53.40
68842;SHT35;55849;48.482;2.332;2023-04-03T23:51:43;10.21;53.55
68842;SHT35;55849;48.482;2.332;2023-04-03T23:54:44;10.17;53.60
68842;SHT35;55849;48.482;2.332;2023-04-03T23:57:46;10.15;53.68
